Flight Track Log - Related Links

Times and Time Zones

All times are in EST time to prevent confusion due to time zone crossing. See the N6711L flight status page for this flight to view local times or setup timezone preferences in your user account.

Time Position Orientation Groundspeed Altitude Reporting Facility
EST Latitude Longitude Course Direction KTS MPH feet Rate Location/Type
Sat 01:36:00 PM 32.0854 -86.2201 132° Southeast  Level Estimated
Sat 01:36:34 PM 32.1686 -86.2278 129° Southeast 115 132 6,500  Level Jacksonville Center
Sat 01:37:00 PM 32.0581 -86.1802 129° Southeast  Level FlightAware Approximate
Sat 01:37:05 PM 32.1583 -86.2153 134° Southeast 119 137 6,800  Level Jacksonville Center
Sat 01:38:00 PM 32.0309 -86.1403 129° Southeast  Level FlightAware Approximate
Sat 01:38:11 PM 32.1322 -86.1800 131° Southeast 119 137 7,800  Level Jacksonville Center
Sat 01:39:00 PM 32.0036 -86.1004 129° Southeast  Level FlightAware Approximate
Sat 01:39:06 PM 32.1119 -86.1594 139° Southeast 111 128 8,500  Level Jacksonville Center
Sat 01:40:00 PM 31.9763 -86.0605 129° Southeast  Level FlightAware Approximate
Sat 01:40:07 PM 32.0897 -86.1269 129° Southeast 126 145 9,100  Level Jacksonville Center
Sat 01:41:00 PM 31.9490 -86.0207 129° Southeast  Level FlightAware Approximate
Sat 01:41:13 PM 32.0572 -86.0914 137° Southeast 153 176 9,000  Level Jacksonville Center
Sat 01:42:14 PM 32.0289 -86.0536 131° Southeast 150 173 9,200  Climbing Jacksonville Center
Sat 01:43:14 PM 32.0008 -86.0136 130° Southeast 156 180 9,000 -47 Descending Jacksonville Center
Sat 01:44:21 PM 31.9706 -85.9708 130° Southeast 165 190 9,100 47 Climbing Jacksonville Center
Sat 01:45:22 PM 31.9400 -85.9308 132° Southeast 152 175 9,100  Level Jacksonville Center
Sat 01:46:22 PM 31.9117 -85.8981 136° Southeast 154 177 9,100 47 Level Jacksonville Center
Sat 01:47:29 PM 31.8794 -85.8528 130° Southeast 156 180 9,200  Climbing Jacksonville Center
Sat 01:48:24 PM 31.8531 -85.8153 130° Southeast 158 182 9,100 -52 Descending Jacksonville Center
Sat 01:49:24 PM 31.8183 -85.7872 146° Southeast 153 176 9,100 55 Level Jacksonville Center
Sat 01:50:13 PM 31.7917 -85.7644 144° Southeast 148 170 9,200  Climbing Jacksonville Center
Sat 01:51:13 PM 31.7547 -85.7389 150° Southeast 149 171 9,100  Descending Jacksonville Center
Sat 01:52:14 PM 31.7197 -85.7111 146° Southeast 152 175 9,200 50 Climbing Jacksonville Center
Sat 01:53:14 PM 31.6850 -85.6806 143° Southeast 151 174 9,200 -50 Level Jacksonville Center
Sat 01:54:15 PM 31.6500 -85.6553 148° Southeast 151 174 9,100 -49 Descending Jacksonville Center
Sat 01:55:16 PM 31.6131 -85.6272 147° Southeast 152 175 9,100  Level Jacksonville Center
Sat 01:56:16 PM 31.5781 -85.6019 148° Southeast 150 173 9,100  Level Jacksonville Center
Sat 01:57:17 PM 31.5433 -85.5717 143° Southeast 150 173 9,100 50 Level Jacksonville Center
Sat 01:58:17 PM 31.5103 -85.5511 152° Southeast 146 168 9,200 50 Climbing Jacksonville Center
Sat 01:59:18 PM 31.4686 -85.5450 173° South 143 165 9,200  Level Jacksonville Center
Sat 02:00:13 PM 31.4353 -85.5369 168° South 146 168 9,200 -52 Level Jacksonville Center
Sat 02:01:13 PM 31.3942 -85.5114 152° Southeast 155 178 9,100  Descending Jacksonville Center
Sat 02:02:14 PM 31.3592 -85.4861 148° Southeast 154 177 9,200 50 Climbing Jacksonville Center
Sat 02:03:14 PM 31.3222 -85.4558 145° Southeast 155 178 9,200  Level Jacksonville Center
Sat 02:04:09 PM 31.2872 -85.4306 148° Southeast 157 181 9,200 -52 Level Jacksonville Center
Sat 02:05:09 PM 31.2544 -85.3956 138° Southeast 168 193 9,100 -50 Descending Jacksonville Center
Sat 02:06:10 PM 31.2283 -85.3536 126° Southeast 168 193 9,100  Level Jacksonville Center
Sat 02:07:11 PM 31.1956 -85.3114 132° Southeast 168 193 9,100  Level Jacksonville Center
Sat 02:08:11 PM 31.1714 -85.2697 124° Southeast 165 190 9,100  Level Jacksonville Center
Sat 02:09:12 PM 31.1408 -85.2250 129° Southeast 164 189 9,100  Level Jacksonville Center
Sat 02:10:13 PM 31.1122 -85.1856 130° Southeast 165 190 9,100  Level Jacksonville Center
Sat 02:11:19 PM 31.0797 -85.1386 129° Southeast 167 192 9,100  Level Jacksonville Center
Sat 02:12:20 PM 31.0492 -85.0919 127° Southeast 169 194 9,100  Level Jacksonville Center
Sat 02:13:14 PM 31.0206 -85.0572 134° Southeast 168 193 9,100  Level Jacksonville Center
Sat 02:14:15 PM 30.9900 -85.0131 129° Southeast 169 194 9,100 Level Jacksonville Center
Sat 02:39:55 PM 30.2494 -83.9531 147° Southeast 161 185 9,200 Climbing Jacksonville Center
Sat 02:40:00 PM 30.0053 -84.4669 149° Southeast  Level FlightAware Approximate
Sat 02:40:55 PM 30.2206 -83.9142 131° Southeast 161 185 9,200  Level Jacksonville Center
Sat 02:41:00 PM 29.9683 -84.4417 149° Southeast  Level FlightAware Approximate
Sat 02:41:55 PM 30.1958 -83.8803 130° Southeast 161 185 9,200  Level Jacksonville Center
Sat 02:42:00 PM 29.9313 -84.4165 149° Southeast  Level FlightAware Approximate
Sat 02:42:55 PM 30.1669 -83.8392 129° Southeast 166 191 9,200  Level Jacksonville Center
Sat 02:43:00 PM 29.8942 -84.3914 149° Southeast  Level FlightAware Approximate
Sat 02:43:55 PM 30.1358 -83.8006 133° Southeast 166 191 9,100  Level Jacksonville Center
Sat 02:44:00 PM 29.8572 -84.3662 149° Southeast  Level FlightAware Approximate
Sat 02:44:55 PM 30.1069 -83.7569 127° Southeast 161 185 9,200  Level Jacksonville Center
Sat 02:45:00 PM 29.8209 -84.3397 147° Southeast  Level Estimated
Sat 02:45:55 PM 30.0800 -83.7206 131° Southeast 161 185 9,200  Level Jacksonville Center
Sat 02:46:55 PM 30.0469 -83.6747 130° Southeast 161 185 9,200  Level Jacksonville Center
Sat 02:47:55 PM 30.0200 -83.6386 131° Southeast 161 185 9,200  Level Jacksonville Center
Sat 02:48:55 PM 29.9911 -83.5975 129° Southeast 161 185 9,200  Level Jacksonville Center
Sat 02:49:55 PM 29.9578 -83.5614 137° Southeast 161 185 9,200  Level Jacksonville Center
Sat 02:50:55 PM 29.9206 -83.5300 144° Southeast 161 185 9,200  Level Jacksonville Center
Sat 02:51:55 PM 29.8850 -83.5011 145° Southeast 161 185 9,200  Level Jacksonville Center
Sat 02:52:55 PM 29.8478 -83.4672 142° Southeast 161 185 9,200  Level Jacksonville Center
Sat 02:53:55 PM 29.8122 -83.4383 145° Southeast 161 185 9,200  Level Jacksonville Center
Sat 02:54:55 PM 29.7747 -83.4069 144° Southeast 166 191 9,200  Level Jacksonville Center
Sat 02:55:55 PM 29.7394 -83.3758 143° Southeast 166 191 9,200  Level Jacksonville Center
Sat 02:56:55 PM 29.7019 -83.3419 142° Southeast 166 191 9,200  Level Jacksonville Center
Sat 02:57:55 PM 29.6667 -83.3086 141° Southeast 171 197 9,200  Level Jacksonville Center
Sat 02:58:55 PM 29.6292 -83.2772 144° Southeast 171 197 9,200  Level Jacksonville Center
Sat 02:59:55 PM 29.5917 -83.2436 142° Southeast 165 190 9,200  Level Jacksonville Center
Sat 03:00:47 PM 29.5583 -83.2150 143° Southeast 166 191 9,200  Level Jacksonville Center
Sat 03:00:55 PM 29.5583 -83.2125 90° East 172 198 9,200  Level Jacksonville Center
Sat 03:01:55 PM 29.5167 -83.1767 143° Southeast 170 196 9,200  Level Jacksonville Center
Sat 03:02:55 PM 29.4814 -83.1478 145° Southeast 173 199 9,200  Level Jacksonville Center
Sat 03:03:02 PM 29.4772 -83.1406 124° Southeast 167 192 9,200  Level Jacksonville Center
Sat 03:03:55 PM 29.4481 -83.1119 139° Southeast 173 199 9,200  Level Jacksonville Center
Sat 03:03:56 PM 29.4417 -83.1094 161° South 168 193 9,200  Level Jacksonville Center
Sat 03:04:55 PM 29.4083 -83.0808 143° Southeast 173 199 9,200  Level Jacksonville Center
Sat 03:04:57 PM 29.4042 -83.0786 155° Southeast 167 192 9,200 -100 Level Jacksonville Center
Sat 03:05:55 PM 29.3728 -83.0475 139° Southeast 173 199 9,100  Descending Jacksonville Center
Sat 03:05:58 PM 29.3667 -83.0450 160° South 168 193 9,200 103 Climbing Jacksonville Center
Sat 03:06:53 PM 29.3333 -83.0164 143° Southeast 166 191 9,200  Level Jacksonville Center
Sat 03:06:55 PM 29.3353 -83.0189 312° West 173 199 9,200  Level Jacksonville Center
Sat 03:07:48 PM 29.3000 -82.9903 145° Southeast 165 190 9,200  Level Jacksonville Center
Sat 03:07:55 PM 29.2978 -82.9878 136° Southeast 173 199 9,200  Level Jacksonville Center
Sat 03:08:55 PM 29.2603 -82.9544 142° Southeast 173 199 9,200  Level Jacksonville Center
Sat 03:09:50 PM 29.2228 -82.9211 142° Southeast 165 190 9,200  Level Jacksonville Center
Sat 03:09:55 PM 29.2269 -82.9211 360° North 173 199 9,200  Level Jacksonville Center
Sat 03:10:51 PM 29.1892 -82.8878 142° Southeast 165 190 9,200  Level Jacksonville Center
Sat 03:10:55 PM 29.1914 -82.8903 316° Northwest 173 199 9,200  Level Jacksonville Center
Sat 03:11:52 PM 29.1517 -82.8544 142° Southeast 166 191 9,200  Level Jacksonville Center
Sat 03:12:53 PM 29.1142 -82.8236 144° Southeast 167 192 9,200 50 Level Jacksonville Center
Sat 03:13:53 PM 29.0764 -82.7928 144° Southeast 168 193 9,300 50 Climbing Jacksonville Center
Sat 03:14:54 PM 29.0347 -82.7572 143° Southeast 167 192 9,300 -49 Level Jacksonville Center
Sat 03:15:55 PM 29.0014 -82.7242 139° Southeast 167 192 9,200 -47 Descending Jacksonville Center
Sat 03:17:02 PM 28.9617 -82.6908 144° Southeast 166 191 9,200  Level Jacksonville Center
Sat 03:18:03 PM 28.9239 -82.6578 143° Southeast 165 190 9,200  Level Jacksonville Center
Sat 03:19:04 PM 28.8842 -82.6247 144° Southeast 164 189 9,200  Level Jacksonville Center
Sat 03:20:05 PM 28.8467 -82.5939 144° Southeast 166 191 9,200 -49 Level Jacksonville Center
Sat 03:21:06 PM 28.8111 -82.5608 141° Southeast 167 192 9,100  Descending Jacksonville Center
Sat 03:22:07 PM 28.7733 -82.5303 145° Southeast 167 192 9,200 50 Climbing Jacksonville Center
Sat 03:23:07 PM 28.7400 -82.4972 139° Southeast 166 191 9,200  Level Jacksonville Center
Sat 03:25:25 PM 28.6500 -82.4333 148° Southeast 166 191 9,200  Level Tampa TRACON
Sat 03:26:31 PM 28.6000 -82.4000 150° Southeast 166 191 9,200 45 Level Tampa TRACON
Sat 03:27:37 PM 28.5500 -82.3833 164° South 167 192 9,300 -48 Climbing Tampa TRACON
Sat 03:28:37 PM 28.5167 -82.3500 139° Southeast 176 203 9,100 -100 Descending Tampa TRACON
Sat 03:29:37 PM 28.4667 -82.3167 150° Southeast 169 194 9,100  Level Tampa TRACON
Sat 03:30:37 PM 28.4333 -82.3000 156° South 164 189 9,100  Level Tampa TRACON
Sat 03:31:37 PM 28.4000 -82.2667 139° Southeast 166 191 9,100  Level Tampa TRACON
Sat 03:32:37 PM 28.3500 -82.2500 164° South 167 192 9,100  Level Tampa TRACON
Sat 03:33:37 PM 28.3167 -82.2167 139° Southeast 163 188 9,100  Level Tampa TRACON
Sat 03:34:32 PM 28.2833 -82.2000 156° South 165 190 9,100 100 Level Tampa TRACON
Sat 03:35:37 PM 28.2333 -82.1667 150° Southeast 165 190 9,300  Climbing Tampa TRACON
Sat 03:36:32 PM 28.2000 -82.1500 156° South 165 190 9,100 -50 Descending Tampa TRACON
Sat 03:37:38 PM 28.1500 -82.1167 150° Southeast 164 189 9,200 38 Climbing Tampa TRACON
Sat 03:39:12 PM 28.0908 -82.0811 152° Southeast 130 150 9,200  Level Miami Center
Sat 03:40:12 PM 28.0481 -82.0578 154° Southeast 162 186 9,200  Level Miami Center
Sat 03:41:12 PM 28.0092 -82.0325 150° Southeast 162 186 9,200  Level Miami Center
Sat 03:42:12 PM 27.9706 -82.0025 146° Southeast 167 192 9,200  Level Miami Center
Sat 03:43:11 PM 27.9278 -81.9794 155° Southeast 167 192 9,200  Level Miami Center
Sat 03:44:12 PM 27.8844 -81.9611 159° South 167 192 9,200  Level Miami Center
Sat 03:45:11 PM 27.8436 -81.9381 153° Southeast 167 192 9,200 -50 Level Miami Center
Sat 03:46:12 PM 27.8069 -81.9156 152° Southeast 174 200 9,100 -50 Descending Miami Center
Sat 03:47:12 PM 27.7597 -81.8900 154° Southeast 174 200 9,100 50 Level Miami Center
Sat 03:48:12 PM 27.7164 -81.8764 164° South 174 200 9,200 50 Climbing Miami Center
Sat 03:49:12 PM 27.6703 -81.8811 185° South 163 188 9,200  Level Miami Center
Sat 03:50:11 PM 27.6325 -81.8889 190° South 158 182 9,200  Level Miami Center
Sat 03:51:12 PM 27.5844 -81.8939 185° South 163 188 9,200  Level Miami Center
Sat 03:52:12 PM 27.5358 -81.9058 192° South 163 188 9,200  Level Miami Center
Sat 03:53:12 PM 27.4897 -81.9131 188° South 163 188 9,200 -300 Level Miami Center
Sat 03:54:12 PM 27.4394 -81.9203 187° South 168 193 8,600 -600 Descending Miami Center
Sat 03:55:12 PM 27.3911 -81.9275 188° South 173 199 8,000 -550 Descending Miami Center
Sat 03:56:12 PM 27.3453 -81.9231 175° South 179 206 7,500 -350 Descending Miami Center
Sat 03:57:12 PM 27.3017 -81.9167 173° South 168 193 7,300 -150 Descending Miami Center
Sat 03:58:12 PM 27.2639 -81.9267 193° South 161 185 7,200 -100 Descending Miami Center
Sat 03:59:12 PM 27.2178 -81.9339 188° South 161 185 7,100  Descending Miami Center
Sat 04:00:12 PM 27.1756 -81.9461 194° South 161 185 7,200 50 Climbing Miami Center
Sat 04:01:12 PM 27.1336 -81.9536 189° South 161 185 7,200 -50 Level Miami Center
Sat 04:02:12 PM 27.0894 -81.9586 186° South 161 185 7,100 -100 Descending Miami Center
Sat 04:03:12 PM 27.0453 -81.9706 194° South 161 185 7,000  Descending Miami Center
Sat 04:04:12 PM 26.9975 -81.9614 170° South 161 185 7,100 50 Climbing Miami Center
Sat 04:05:12 PM 26.9603 -81.9531 169° South 161 185 7,100  Level Miami Center
Sat 04:06:12 PM 26.9189 -81.9417 166° South 155 178 7,100  Level Miami Center
Sat 04:07:12 PM 26.8753 -81.9375 175° South 160 184 7,100  Level Miami Center
Sat 04:08:12 PM 26.8317 -81.9286 170° South 160 184 7,100  Level Miami Center
Sat 04:10:00 PM 26.7526 -81.9142 171° South  Level FlightAware Approximate
Sat 04:17:00 PM 26.4487 -81.8452 167° South  Level FlightAware Approximate
Sat 04:18:00 PM 26.4054 -81.8336 167° South  Level FlightAware Approximate
Sat 04:19:00 PM 26.3621 -81.8221 167° South  Level FlightAware Approximate
Sat 04:20:00 PM 26.3188 -81.8105 167° South  Level FlightAware Approximate
Sat 04:21:00 PM 26.2755 -81.7990 167° South  Level FlightAware Approximate
Sat 04:22:00 PM 26.2322 -81.7875 167° South  Level FlightAware Approximate
Sat 04:23:00 PM 26.1888 -81.7764 167° South  Level FlightAware Approximate
Sat 04:24:00 PM 26.1500 -81.7667 167° South  Level FlightAware Approximate
Sat 04:25:00 PM 26.1524 -81.7756 167° South  Level Estimated
Sat 04:26:00 PM 26.1524 -81.7756 167° South  Level Estimated
Sat 04:27:00 PM 26.1524 -81.7756 167° South  Level Estimated
Sat 04:28:00 PM 26.1524 -81.7756 167° South  Level Estimated
Sat 04:29:00 PM 26.1524 -81.7756 167° South  Level Estimated
Sat 04:30:00 PM 26.1524 -81.7756 167° South  Level Estimated
Sat 04:31:00 PM 26.1524 -81.7756 167° South  Level Estimated
Sat 04:32:00 PM 26.1524 -81.7756 167° South  Level Estimated
Sat 04:33:00 PM 26.1524 -81.7756 167° South  Level Estimated
Sat 04:34:00 PM 26.1524 -81.7756 167° South  Level Estimated
Sat 04:35:00 PM 26.1524 -81.7756 167° South  Level Estimated
Sat 04:36:00 PM 26.1524 -81.7756 167° South  Level Estimated
Sat 04:37:00 PM 26.1524 -81.7756 167° South  Level Estimated
Sat 04:38:00 PM 26.1524 -81.7756 167° South  Level Estimated
Sat 04:39:00 PM 26.1524 -81.7756 167° South  Level Estimated
Sat 04:40:00 PM 26.1524 -81.7756 167° South  Level Estimated

Login

Don't have an account? Register now (free) for customized features, flight alerts, and more!